createdAt,value
2019-03-28T00:01:20.799Z,7.30
2019-03-28T00:03:47.191Z,7.30
2019-03-28T00:06:13.467Z,7.30
2019-03-28T00:08:39.879Z,7.40
2019-03-28T00:11:06.364Z,7.40
2019-03-28T00:13:32.987Z,7.30
2019-03-28T00:15:59.283Z,7.40
2019-03-28T00:18:25.651Z,7.40
2019-03-28T00:20:51.947Z,7.40
2019-03-28T00:23:24.187Z,7.40
2019-03-28T00:25:51.691Z,7.40
2019-03-28T00:28:17.963Z,7.40
2019-03-28T00:30:44.413Z,7.40
2019-03-28T00:33:10.928Z,7.40
2019-03-28T00:35:37.223Z,7.40
2019-03-28T00:38:03.847Z,7.40
2019-03-28T00:40:30.414Z,7.50
2019-03-28T00:42:56.739Z,7.40
2019-03-28T00:45:23.038Z,7.40
2019-03-28T00:47:49.535Z,7.40
2019-03-28T00:50:16.231Z,7.30
2019-03-28T00:52:42.965Z,7.30
2019-03-28T00:55:10.140Z,7.40
2019-03-28T00:57:36.541Z,7.30
2019-03-28T01:00:04.971Z,7.30
2019-03-28T01:02:32.651Z,7.30
2019-03-28T01:04:59.147Z,7.40
2019-03-28T01:07:25.759Z,7.40
2019-03-28T01:09:52.171Z,7.40
2019-03-28T01:12:18.835Z,7.40
2019-03-28T01:14:45.135Z,7.40
2019-03-28T01:17:11.701Z,7.40
2019-03-28T01:19:38.115Z,7.40
2019-03-28T01:22:04.691Z,7.40
2019-03-28T01:24:31.407Z,7.30
2019-03-28T01:26:58.925Z,7.30
2019-03-28T01:29:25.583Z,7.30
2019-03-28T01:31:51.852Z,7.30
2019-03-28T01:34:18.130Z,7.30
2019-03-28T01:36:44.803Z,7.30
2019-03-28T01:39:11.539Z,7.20
2019-03-28T01:41:37.962Z,7.20
2019-03-28T01:44:04.331Z,7.20
2019-03-28T01:46:30.744Z,7.20
2019-03-28T01:48:57.011Z,7.20
2019-03-28T01:51:23.607Z,7.10
2019-03-28T01:53:49.876Z,7.10
2019-03-28T01:56:16.170Z,7.10
2019-03-28T01:58:42.927Z,7.10
2019-03-28T02:01:09.520Z,7.10
2019-03-28T02:03:35.795Z,7.10
2019-03-28T02:06:02.284Z,7.00
2019-03-28T02:08:28.755Z,7.00
2019-03-28T02:10:55.071Z,7.00
2019-03-28T02:13:22.216Z,7.00
2019-03-28T02:15:48.907Z,6.90
2019-03-28T02:18:15.275Z,6.90
2019-03-28T02:20:42.036Z,6.90
2019-03-28T02:23:08.305Z,6.80
2019-03-28T02:25:35.008Z,6.80
2019-03-28T02:28:01.379Z,6.80
2019-03-28T02:30:30.179Z,6.80
2019-03-28T02:32:56.451Z,6.80
2019-03-28T02:35:22.759Z,6.80
2019-03-28T02:37:49.124Z,6.80
2019-03-28T02:40:16.764Z,6.80
2019-03-28T02:42:43.346Z,6.80
2019-03-28T02:45:10.361Z,6.80
2019-03-28T02:47:36.728Z,6.80
2019-03-28T02:50:07.345Z,6.80
2019-03-28T02:52:33.707Z,6.80
2019-03-28T02:55:00.001Z,6.80
2019-03-28T02:57:40.052Z,6.80
2019-03-28T02:59:54.780Z,6.80
2019-03-28T03:02:21.435Z,6.80
2019-03-28T03:04:47.703Z,6.90
2019-03-28T03:07:14.080Z,6.90
2019-03-28T03:09:40.350Z,6.90
2019-03-28T03:12:07.058Z,6.90
2019-03-28T03:14:33.600Z,6.90
2019-03-28T03:16:59.996Z,6.90
2019-03-28T03:19:26.368Z,6.90
2019-03-28T03:21:53.102Z,6.90
2019-03-28T03:24:19.369Z,6.90
2019-03-28T03:26:45.767Z,6.90
2019-03-28T03:29:12.123Z,6.90
2019-03-28T03:31:38.411Z,6.90
2019-03-28T03:34:05.358Z,6.90
2019-03-28T03:36:32.280Z,6.90
2019-03-28T03:38:58.639Z,6.90
2019-03-28T03:41:24.981Z,6.90
2019-03-28T03:43:51.348Z,6.90
2019-03-28T03:46:17.744Z,7.00
2019-03-28T03:48:44.018Z,6.90
2019-03-28T03:51:10.415Z,6.90
2019-03-28T03:53:36.691Z,6.90
2019-03-28T03:56:03.304Z,6.90
2019-03-28T03:58:29.672Z,6.90
2019-03-28T04:00:56.176Z,6.90
2019-03-28T04:03:22.552Z,6.90
2019-03-28T04:05:48.859Z,6.90
2019-03-28T04:08:15.249Z,6.90
2019-03-28T04:10:41.658Z,6.90
2019-03-28T04:13:07.929Z,6.80
2019-03-28T04:15:34.328Z,6.90
2019-03-28T04:18:01.820Z,6.80
2019-03-28T04:20:28.423Z,6.80
2019-03-28T04:22:54.792Z,6.80
2019-03-28T04:25:21.194Z,6.80
2019-03-28T04:27:47.587Z,6.90
2019-03-28T04:30:14.079Z,6.80
2019-03-28T04:32:40.458Z,6.90
2019-03-28T04:35:06.853Z,6.80
2019-03-28T04:37:34.324Z,6.90
2019-03-28T04:40:00.913Z,6.90
2019-03-28T04:42:27.356Z,6.90
2019-03-28T04:44:53.831Z,6.90
2019-03-28T04:47:20.127Z,6.90
2019-03-28T04:49:46.742Z,6.90
2019-03-28T04:52:13.043Z,6.90
2019-03-28T04:54:39.715Z,6.90
2019-03-28T04:57:06.009Z,6.90
2019-03-28T04:59:32.284Z,6.90
2019-03-28T05:02:03.208Z,6.90
2019-03-28T05:04:27.111Z,6.90
2019-03-28T05:06:53.604Z,6.90
2019-03-28T05:09:19.970Z,6.90
2019-03-28T05:11:46.278Z,6.90
2019-03-28T05:14:13.504Z,6.90
2019-03-28T05:16:39.800Z,6.90
2019-03-28T05:19:06.643Z,7.00
2019-03-28T05:21:33.036Z,7.00
2019-03-28T05:23:59.307Z,7.00
2019-03-28T05:26:25.622Z,7.00
2019-03-28T05:28:57.416Z,7.10
2019-03-28T05:31:20.174Z,7.10
2019-03-28T05:33:46.742Z,7.20
2019-03-28T05:36:13.128Z,7.20
2019-03-28T05:38:39.395Z,7.20
2019-03-28T05:41:05.708Z,7.20
2019-03-28T05:43:32.099Z,7.20
2019-03-28T05:45:58.393Z,7.20
2019-03-28T05:48:24.959Z,7.30
2019-03-28T05:50:51.574Z,7.30
2019-03-28T05:53:17.872Z,7.30
2019-03-28T05:55:44.566Z,7.30
2019-03-28T05:58:12.311Z,7.30
2019-03-28T06:00:39.111Z,7.30
2019-03-28T06:03:06.914Z,7.30
2019-03-28T06:05:33.357Z,7.40
2019-03-28T06:07:59.990Z,7.40
2019-03-28T06:10:26.250Z,7.40
2019-03-28T06:12:52.869Z,7.50
2019-03-28T06:15:19.134Z,7.50
2019-03-28T06:17:45.529Z,7.60
2019-03-28T06:20:12.467Z,7.60
2019-03-28T06:22:39.653Z,7.60
2019-03-28T06:25:06.883Z,7.70
2019-03-28T06:27:34.379Z,7.70
2019-03-28T06:30:02.223Z,7.70
2019-03-28T06:32:41.966Z,7.80
2019-03-28T06:34:57.097Z,7.80
2019-03-28T06:37:23.478Z,7.80
2019-03-28T06:39:49.867Z,7.80
2019-03-28T06:42:16.186Z,7.90
2019-03-28T06:44:42.627Z,7.90
2019-03-28T06:47:08.995Z,7.90
2019-03-28T06:49:35.266Z,7.90
2019-03-28T06:52:01.550Z,8.00
2019-03-28T06:54:27.816Z,8.00
2019-03-28T06:56:54.203Z,8.00
2019-03-28T06:59:20.596Z,8.10
2019-03-28T07:01:46.974Z,8.10
2019-03-28T07:04:13.587Z,8.10
2019-03-28T07:06:40.646Z,8.10
2019-03-28T07:09:07.884Z,8.10
2019-03-28T07:11:34.677Z,8.20
2019-03-28T07:14:01.815Z,8.20
2019-03-28T07:16:28.914Z,8.20
2019-03-28T07:18:55.175Z,8.20
2019-03-28T07:21:21.444Z,8.30
2019-03-28T07:23:47.829Z,8.30
2019-03-28T07:26:14.555Z,8.40
2019-03-28T07:28:41.423Z,8.50
2019-03-28T07:31:08.247Z,8.60
2019-03-28T07:33:34.718Z,8.60
2019-03-28T07:36:00.987Z,8.70
2019-03-28T07:38:27.292Z,8.90
2019-03-28T07:40:53.765Z,9.00
2019-03-28T07:43:20.302Z,9.10
2019-03-28T07:45:46.942Z,9.20
2019-03-28T07:48:13.334Z,9.30
2019-03-28T07:50:42.398Z,9.50
2019-03-28T07:53:07.778Z,9.60
2019-03-28T07:55:34.067Z,9.80
2019-03-28T07:58:00.647Z,9.90
2019-03-28T08:00:27.029Z,10.00
2019-03-28T08:02:53.294Z,10.10
2019-03-28T08:05:19.774Z,10.30
2019-03-28T08:07:47.111Z,10.30
2019-03-28T08:10:14.327Z,10.50
2019-03-28T08:12:41.514Z,10.60
2019-03-28T08:15:08.770Z,10.70
2019-03-28T08:17:35.387Z,10.90
2019-03-28T08:20:03.879Z,11.00
2019-03-28T08:22:30.256Z,11.20
2019-03-28T08:24:56.959Z,11.30
2019-03-28T08:27:23.680Z,11.50
2019-03-28T08:29:50.161Z,11.60
2019-03-28T08:32:18.431Z,11.80
2019-03-28T08:34:44.926Z,12.00
2019-03-28T08:37:11.648Z,12.20
2019-03-28T08:39:38.310Z,12.50
2019-03-28T08:42:05.787Z,12.80
2019-03-28T08:44:32.045Z,13.00
2019-03-28T08:46:58.627Z,13.30
2019-03-28T08:49:24.895Z,13.60
2019-03-28T08:51:51.313Z,13.90
2019-03-28T08:54:17.574Z,14.20
2019-03-28T08:56:43.958Z,14.50
2019-03-28T08:59:10.433Z,14.70
2019-03-28T09:01:37.030Z,14.80
2019-03-28T09:04:03.766Z,15.00
2019-03-28T09:06:30.278Z,15.10
2019-03-28T09:08:56.796Z,15.20
2019-03-28T09:11:23.472Z,15.20
2019-03-28T09:13:49.858Z,15.20
2019-03-28T09:16:16.243Z,15.20
2019-03-28T09:18:42.865Z,15.20
2019-03-28T09:21:09.363Z,15.20
2019-03-28T09:23:35.947Z,15.20
2019-03-28T09:26:04.583Z,15.20
2019-03-28T09:28:31.233Z,15.20
2019-03-28T09:30:57.943Z,15.20
2019-03-28T09:33:24.822Z,15.20
2019-03-28T09:35:51.348Z,15.30
2019-03-28T09:38:18.009Z,15.30
2019-03-28T09:40:44.486Z,15.30
2019-03-28T09:43:10.994Z,15.30
2019-03-28T09:45:38.371Z,15.30
2019-03-28T09:48:04.851Z,15.30
2019-03-28T09:50:31.127Z,15.30
2019-03-28T09:52:57.863Z,15.30
2019-03-28T09:55:24.511Z,15.30
2019-03-28T09:57:50.890Z,15.30
2019-03-28T10:00:18.766Z,15.30
2019-03-28T10:02:45.349Z,15.30
2019-03-28T10:05:12.390Z,15.40
2019-03-28T10:07:38.816Z,15.40
2019-03-28T10:10:09.062Z,15.40
2019-03-28T10:12:34.530Z,15.50
2019-03-28T10:15:03.250Z,15.50
2019-03-28T10:17:29.647Z,15.60
2019-03-28T10:19:55.932Z,15.70
2019-03-28T10:22:22.563Z,15.80
2019-03-28T10:24:49.091Z,16.00
2019-03-28T10:27:15.367Z,16.30
2019-03-28T10:29:42.135Z,16.70
2019-03-28T10:32:08.403Z,17.00
2019-03-28T10:34:34.791Z,17.30
2019-03-28T10:37:01.266Z,17.40
2019-03-28T10:39:27.987Z,17.50
2019-03-28T10:41:54.872Z,17.50
2019-03-28T10:44:21.470Z,17.50
2019-03-28T10:46:47.939Z,17.40
2019-03-28T10:49:15.668Z,17.40
2019-03-28T10:51:42.651Z,17.30
2019-03-28T10:54:19.304Z,17.30
2019-03-28T10:56:50.813Z,17.20
2019-03-28T10:59:05.527Z,17.20
2019-03-28T11:01:47.456Z,17.20
2019-03-28T11:04:00.088Z,17.10
2019-03-28T11:06:27.725Z,17.20
2019-03-28T11:08:54.010Z,17.10
2019-03-28T11:11:20.267Z,17.10
2019-03-28T11:13:46.580Z,17.10
2019-03-28T11:16:15.036Z,17.20
2019-03-28T11:18:42.778Z,17.20
2019-03-28T11:21:09.047Z,17.30
2019-03-28T11:23:35.347Z,17.40
2019-03-28T11:26:01.729Z,17.50
2019-03-28T11:28:28.116Z,17.50
2019-03-28T11:30:54.950Z,17.70
2019-03-28T11:33:22.213Z,17.80
2019-03-28T11:35:48.689Z,18.00
2019-03-28T11:38:14.976Z,18.10
2019-03-28T11:40:42.948Z,18.30
2019-03-28T11:43:09.740Z,18.40
2019-03-28T11:45:36.106Z,18.60
2019-03-28T11:48:02.798Z,18.70
2019-03-28T11:50:29.267Z,18.90
2019-03-28T11:52:55.936Z,19.00
2019-03-28T11:55:22.201Z,19.00
2019-03-28T11:57:48.782Z,19.10
2019-03-28T12:00:17.668Z,19.00
2019-03-28T12:02:44.270Z,18.90
2019-03-28T12:05:10.923Z,18.80
2019-03-28T12:07:37.523Z,18.80
2019-03-28T12:10:10.972Z,18.70
2019-03-28T12:12:38.690Z,18.60
2019-03-28T12:15:06.944Z,18.50
2019-03-28T12:17:33.314Z,18.40
2019-03-28T12:19:59.602Z,18.40
2019-03-28T12:22:26.075Z,18.30
2019-03-28T12:25:05.699Z,18.20
2019-03-28T12:27:32.071Z,18.10
2019-03-28T12:29:58.627Z,18.10
2019-03-28T12:32:24.894Z,18.00
2019-03-28T12:34:51.183Z,18.00
2019-03-28T12:37:17.839Z,17.90
2019-03-28T12:39:44.245Z,17.90
2019-03-28T12:42:10.526Z,17.90
2019-03-28T12:44:36.938Z,17.80
2019-03-28T12:47:03.569Z,17.90
2019-03-28T12:49:29.989Z,17.90
2019-03-28T12:51:56.347Z,17.90
2019-03-28T12:54:22.741Z,17.90
2019-03-28T12:56:49.007Z,17.90
2019-03-28T12:59:15.438Z,17.90
2019-03-28T13:01:41.801Z,18.00
2019-03-28T13:04:08.499Z,18.00
2019-03-28T13:06:34.877Z,18.00
2019-03-28T13:09:01.566Z,18.00
2019-03-28T13:11:30.062Z,18.00
2019-03-28T13:13:56.364Z,18.10
2019-03-28T13:16:22.639Z,18.00
2019-03-28T13:18:48.918Z,18.00
2019-03-28T13:21:15.196Z,18.00
2019-03-28T13:23:43.046Z,17.90
2019-03-28T13:26:09.690Z,17.90
2019-03-28T13:28:36.308Z,17.80
2019-03-28T13:31:02.676Z,17.70
2019-03-28T13:33:29.043Z,17.60
2019-03-28T13:35:55.357Z,17.60
2019-03-28T13:38:21.728Z,17.60
2019-03-28T13:40:48.050Z,17.50
2019-03-28T13:43:14.406Z,17.50
2019-03-28T13:45:40.918Z,17.50
2019-03-28T13:48:07.467Z,17.50
2019-03-28T13:50:33.756Z,17.50
2019-03-28T13:53:00.431Z,17.50
2019-03-28T13:55:27.079Z,17.60
2019-03-28T13:57:53.727Z,17.60
2019-03-28T14:00:29.027Z,17.60
2019-03-28T14:02:58.836Z,17.60
2019-03-28T14:05:23.586Z,17.60
2019-03-28T14:07:50.955Z,17.60
2019-03-28T14:10:17.335Z,17.60
2019-03-28T14:12:43.799Z,17.60
2019-03-28T14:15:10.521Z,17.60
2019-03-28T14:17:36.892Z,17.50
2019-03-28T14:20:06.061Z,17.50
2019-03-28T14:22:32.398Z,17.50
2019-03-28T14:25:00.420Z,17.50
2019-03-28T14:27:26.817Z,17.40
2019-03-28T14:29:53.202Z,17.40
2019-03-28T14:32:19.858Z,17.40
2019-03-28T14:34:46.327Z,17.40
2019-03-28T14:37:12.728Z,17.40
2019-03-28T14:39:39.467Z,17.40
2019-03-28T14:42:06.106Z,17.40
2019-03-28T14:44:32.834Z,17.40
2019-03-28T14:46:59.123Z,17.40
2019-03-28T14:49:25.715Z,17.40
2019-03-28T14:51:52.081Z,17.40
2019-03-28T14:54:18.477Z,17.40
2019-03-28T14:56:45.049Z,17.40
2019-03-28T14:59:12.431Z,17.40
2019-03-28T15:01:38.930Z,17.40
2019-03-28T15:04:05.208Z,17.40
2019-03-28T15:06:31.497Z,17.40
2019-03-28T15:08:57.969Z,17.40
2019-03-28T15:11:24.563Z,17.40
2019-03-28T15:13:50.948Z,17.40
2019-03-28T15:16:17.341Z,17.30
2019-03-28T15:18:43.897Z,17.40
2019-03-28T15:21:10.986Z,17.30
2019-03-28T15:23:37.311Z,17.30
2019-03-28T15:26:03.947Z,17.30
2019-03-28T15:28:30.410Z,17.20
2019-03-28T15:30:56.805Z,17.30
2019-03-28T15:33:23.217Z,17.20
2019-03-28T15:35:49.694Z,17.20
2019-03-28T15:38:17.152Z,17.20
2019-03-28T15:40:43.554Z,17.20
2019-03-28T15:43:09.815Z,17.20
2019-03-28T15:45:36.657Z,17.20
2019-03-28T15:48:03.230Z,17.20
2019-03-28T15:50:29.615Z,17.10
2019-03-28T15:52:55.975Z,17.20
2019-03-28T15:55:22.886Z,17.10
2019-03-28T15:57:49.533Z,17.00
2019-03-28T16:00:16.857Z,17.00
2019-03-28T16:02:43.229Z,17.00
2019-03-28T16:05:09.807Z,17.00
2019-03-28T16:07:36.162Z,16.90
2019-03-28T16:10:05.459Z,16.90
2019-03-28T16:12:32.011Z,16.80
2019-03-28T16:14:58.406Z,16.80
2019-03-28T16:17:25.082Z,16.80
2019-03-28T16:19:51.722Z,16.70
2019-03-28T16:22:17.983Z,16.70
2019-03-28T16:24:46.514Z,16.70
2019-03-28T16:27:12.662Z,16.70
2019-03-28T16:29:39.299Z,16.70
2019-03-28T16:32:06.158Z,16.70
2019-03-28T16:34:32.451Z,16.70
2019-03-28T16:36:59.164Z,16.60
2019-03-28T16:39:25.769Z,16.60
2019-03-28T16:41:52.402Z,16.60
2019-03-28T16:44:18.666Z,16.60
2019-03-28T16:46:45.011Z,16.60
2019-03-28T16:49:11.432Z,16.50
2019-03-28T16:51:37.906Z,16.50
2019-03-28T16:54:04.657Z,16.50
2019-03-28T16:56:31.067Z,16.40
2019-03-28T16:58:57.756Z,16.40
2019-03-28T17:01:24.568Z,16.30
2019-03-28T17:03:52.325Z,16.30
2019-03-28T17:06:19.209Z,16.30
2019-03-28T17:08:46.671Z,16.30
2019-03-28T17:11:12.981Z,16.30
2019-03-28T17:13:39.806Z,16.30
2019-03-28T17:16:06.419Z,16.20
2019-03-28T17:18:32.796Z,16.20
2019-03-28T17:20:59.217Z,16.20
2019-03-28T17:23:25.812Z,16.10
2019-03-28T17:25:52.690Z,16.10
2019-03-28T17:28:19.568Z,16.10
2019-03-28T17:30:46.064Z,16.00
2019-03-28T17:33:12.708Z,16.00
2019-03-28T17:35:40.223Z,16.00
2019-03-28T17:38:06.659Z,15.90
2019-03-28T17:40:33.058Z,15.90
2019-03-28T17:42:59.337Z,15.90
2019-03-28T17:45:25.992Z,15.80
2019-03-28T17:47:52.425Z,15.80
2019-03-28T17:50:18.771Z,15.70
2019-03-28T17:52:45.266Z,15.70
2019-03-28T17:55:12.225Z,15.60
2019-03-28T17:57:39.613Z,15.60
2019-03-28T18:00:07.030Z,15.60
2019-03-28T18:02:33.456Z,15.50
2019-03-28T18:05:09.045Z,15.50
2019-03-28T18:07:28.236Z,15.50
2019-03-28T18:09:54.604Z,15.40
2019-03-28T18:12:21.100Z,15.40
2019-03-28T18:14:47.618Z,15.40
2019-03-28T18:17:13.923Z,15.40
2019-03-28T18:19:40.300Z,15.30
2019-03-28T18:22:06.804Z,15.30
2019-03-28T18:24:33.683Z,15.30
2019-03-28T18:26:59.969Z,15.30
2019-03-28T18:29:27.122Z,15.20
2019-03-28T18:31:54.244Z,15.20
2019-03-28T18:34:20.819Z,15.20
2019-03-28T18:36:47.500Z,15.10
2019-03-28T18:39:14.314Z,15.10
2019-03-28T18:41:40.715Z,15.10
2019-03-28T18:44:07.084Z,15.10
2019-03-28T18:46:33.499Z,15.10
2019-03-28T18:48:59.836Z,15.00
2019-03-28T18:51:26.229Z,15.00
2019-03-28T18:53:52.611Z,15.00
2019-03-28T18:56:19.002Z,15.00
2019-03-28T18:58:45.270Z,15.00
2019-03-28T19:01:11.673Z,14.90
2019-03-28T19:03:58.022Z,14.90
2019-03-28T19:06:24.326Z,14.90
2019-03-28T19:08:50.803Z,14.80
2019-03-28T19:11:17.382Z,14.80
2019-03-28T19:13:44.122Z,14.80
2019-03-28T19:16:10.538Z,14.80
2019-03-28T19:18:36.800Z,14.80
2019-03-28T19:21:03.293Z,14.70
2019-03-28T19:23:29.566Z,14.70
2019-03-28T19:25:56.968Z,14.70
2019-03-28T19:28:28.957Z,14.70
2019-03-28T19:30:51.958Z,14.60
2019-03-28T19:33:18.611Z,14.60
2019-03-28T19:35:45.591Z,14.60
2019-03-28T19:38:12.262Z,14.60
2019-03-28T19:40:39.000Z,14.50
2019-03-28T19:43:19.233Z,14.50
2019-03-28T19:45:36.049Z,14.50
2019-03-28T19:48:04.015Z,14.50
2019-03-28T19:50:30.386Z,14.50
2019-03-28T19:52:56.680Z,14.40
2019-03-28T19:55:24.355Z,14.40
2019-03-28T19:57:50.958Z,14.30
2019-03-28T20:00:18.028Z,14.30
2019-03-28T20:02:44.510Z,14.30
2019-03-28T20:05:11.071Z,14.20
2019-03-28T20:07:37.463Z,14.20
2019-03-28T20:10:15.835Z,14.20
2019-03-28T20:12:35.320Z,14.20
2019-03-28T20:15:02.385Z,14.10
2019-03-28T20:17:29.208Z,14.10
2019-03-28T20:20:00.307Z,14.10
2019-03-28T20:22:27.599Z,14.00
2019-03-28T20:24:53.963Z,14.00
2019-03-28T20:27:20.358Z,14.00
2019-03-28T20:29:47.007Z,14.00
2019-03-28T20:32:13.422Z,13.90
2019-03-28T20:34:50.947Z,13.90
2019-03-28T20:37:19.168Z,13.80
2019-03-28T20:39:45.901Z,13.80
2019-03-28T20:42:12.686Z,13.70
2019-03-28T20:44:39.455Z,13.70
2019-03-28T20:47:05.977Z,13.60
2019-03-28T20:49:32.339Z,13.50
2019-03-28T20:51:58.640Z,13.50
2019-03-28T20:54:25.104Z,13.40
2019-03-28T20:56:51.827Z,13.30
2019-03-28T20:59:18.304Z,13.30
2019-03-28T21:01:44.979Z,13.20
2019-03-28T21:04:11.653Z,13.10
2019-03-28T21:06:38.130Z,13.00
2019-03-28T21:09:06.337Z,12.90
2019-03-28T21:11:32.795Z,12.80
2019-03-28T21:13:59.090Z,12.80
2019-03-28T21:16:25.353Z,12.70
2019-03-28T21:18:52.757Z,12.60
2019-03-28T21:21:19.226Z,12.50
2019-03-28T21:23:45.539Z,12.40
2019-03-28T21:26:12.008Z,12.40
2019-03-28T21:28:46.980Z,12.30
2019-03-28T21:31:07.198Z,12.20
2019-03-28T21:33:33.478Z,12.10
2019-03-28T21:35:59.746Z,12.10
2019-03-28T21:38:26.025Z,12.00
2019-03-28T21:40:53.164Z,11.90
2019-03-28T21:43:20.150Z,11.90
2019-03-28T21:45:46.516Z,11.80
2019-03-28T21:48:12.930Z,11.70
2019-03-28T21:50:39.289Z,11.60
2019-03-28T21:53:06.322Z,11.60
2019-03-28T21:55:33.611Z,11.50
2019-03-28T21:58:00.223Z,11.50
2019-03-28T22:00:26.874Z,11.40
2019-03-28T22:02:53.207Z,11.30
2019-03-28T22:05:19.550Z,11.30
2019-03-28T22:07:45.947Z,11.20
2019-03-28T22:10:12.599Z,11.20
2019-03-28T22:12:38.891Z,11.10
2019-03-28T22:15:06.455Z,11.00
2019-03-28T22:17:32.867Z,11.00
2019-03-28T22:19:59.122Z,11.00
2019-03-28T22:22:25.398Z,10.90
2019-03-28T22:24:52.116Z,10.90
2019-03-28T22:27:18.506Z,10.80
2019-03-28T22:29:45.115Z,10.70
2019-03-28T22:32:11.899Z,10.70
2019-03-28T22:34:38.369Z,10.60
2019-03-28T22:37:04.623Z,10.60
2019-03-28T22:39:30.906Z,10.50
2019-03-28T22:41:57.179Z,10.50
2019-03-28T22:44:24.223Z,10.40
2019-03-28T22:46:51.579Z,10.40
2019-03-28T22:49:17.898Z,10.30
2019-03-28T22:51:45.469Z,10.30
2019-03-28T22:54:11.766Z,10.20
2019-03-28T22:56:38.327Z,10.20
2019-03-28T22:59:04.623Z,10.20
2019-03-28T23:01:30.890Z,10.10
2019-03-28T23:03:57.503Z,10.10
2019-03-28T23:06:24.163Z,10.10
2019-03-28T23:08:50.713Z,10.00
2019-03-28T23:11:17.077Z,10.00
2019-03-28T23:13:43.367Z,9.90
2019-03-28T23:16:09.628Z,9.90
2019-03-28T23:18:36.221Z,9.90
2019-03-28T23:21:02.853Z,9.80
2019-03-28T23:23:29.594Z,9.80
2019-03-28T23:25:55.949Z,9.80
2019-03-28T23:28:22.363Z,9.70
2019-03-28T23:30:48.955Z,9.70
2019-03-28T23:33:15.278Z,9.60
2019-03-28T23:35:41.543Z,9.60
2019-03-28T23:38:08.206Z,9.50
2019-03-28T23:40:34.487Z,9.50
2019-03-28T23:43:01.134Z,9.50
2019-03-28T23:45:27.802Z,9.50
2019-03-28T23:47:54.062Z,9.40
2019-03-28T23:50:20.371Z,9.40
2019-03-28T23:52:46.733Z,9.40
2019-03-28T23:55:13.028Z,9.40
2019-03-28T23:57:39.479Z,9.30
